createdAt,value
2018-04-02T00:00:37.806Z,2.50
2018-04-02T00:01:40.351Z,2.50
2018-04-02T00:02:42.812Z,2.50
2018-04-02T00:03:46.075Z,2.50
2018-04-02T00:04:48.630Z,2.50
2018-04-02T00:05:51.099Z,2.50
2018-04-02T00:06:54.476Z,2.50
2018-04-02T00:07:56.989Z,2.50
2018-04-02T00:08:59.462Z,2.50
2018-04-02T00:10:01.930Z,2.50
2018-04-02T00:11:05.152Z,2.50
2018-04-02T00:12:08.472Z,2.50
2018-04-02T00:13:10.967Z,2.40
2018-04-02T00:14:13.442Z,2.50
2018-04-02T00:15:15.902Z,2.50
2018-04-02T00:16:18.440Z,2.40
2018-04-02T00:17:21.670Z,2.40
2018-04-02T00:18:24.119Z,2.40
2018-04-02T00:19:26.583Z,2.40
2018-04-02T00:20:29.099Z,2.40
2018-04-02T00:21:31.592Z,2.40
2018-04-02T00:22:34.049Z,2.30
2018-04-02T00:23:38.154Z,2.30
2018-04-02T00:24:40.625Z,2.30
2018-04-02T00:25:43.100Z,2.30
2018-04-02T00:26:45.643Z,2.20
2018-04-02T00:27:48.220Z,2.20
2018-04-02T00:28:50.783Z,2.20
2018-04-02T00:29:53.255Z,2.20
2018-04-02T00:30:55.727Z,2.20
2018-04-02T00:31:58.207Z,2.20
2018-04-02T00:33:00.662Z,2.20
2018-04-02T00:34:03.922Z,2.10
2018-04-02T00:35:07.218Z,2.10
2018-04-02T00:36:09.803Z,2.10
2018-04-02T00:37:12.274Z,2.10
2018-04-02T00:38:14.758Z,2.00
2018-04-02T00:39:17.284Z,2.00
2018-04-02T00:40:19.850Z,2.00
2018-04-02T00:41:22.407Z,2.00
2018-04-02T00:42:26.486Z,1.90
2018-04-02T00:43:28.957Z,1.80
2018-04-02T00:44:31.630Z,1.80
2018-04-02T00:45:34.894Z,1.70
2018-04-02T00:46:38.125Z,1.70
2018-04-02T00:47:40.721Z,1.70
2018-04-02T00:48:43.988Z,1.70
2018-04-02T00:49:47.234Z,1.70
2018-04-02T00:50:49.690Z,1.70
2018-04-02T00:51:52.168Z,1.70
2018-04-02T00:52:55.498Z,1.70
2018-04-02T00:53:58.049Z,1.60
2018-04-02T00:55:01.279Z,1.60
2018-04-02T00:56:04.517Z,1.60
2018-04-02T00:57:06.978Z,1.60
2018-04-02T00:58:09.494Z,1.60
2018-04-02T00:59:11.988Z,1.60
2018-04-02T01:00:14.452Z,1.60
2018-04-02T01:01:16.940Z,1.60
2018-04-02T01:02:20.361Z,1.60
2018-04-02T01:03:22.867Z,1.50
2018-04-02T01:04:25.406Z,1.50
2018-04-02T01:05:27.895Z,1.60
2018-04-02T01:06:30.362Z,1.50
2018-04-02T01:07:32.996Z,1.50
2018-04-02T01:08:35.453Z,1.50
2018-04-02T01:09:38.722Z,1.50
2018-04-02T01:10:41.186Z,1.50
2018-04-02T01:11:43.920Z,1.50
2018-04-02T01:12:46.479Z,1.50
2018-04-02T01:13:49.720Z,1.40
2018-04-02T01:14:53.099Z,1.40
2018-04-02T01:15:55.604Z,1.40
2018-04-02T01:16:58.851Z,1.40
2018-04-02T01:18:01.318Z,1.40
2018-04-02T01:19:03.906Z,1.40
2018-04-02T01:20:06.394Z,1.40
2018-04-02T01:21:08.938Z,1.40
2018-04-02T01:22:11.433Z,1.40
2018-04-02T01:23:15.414Z,1.40
2018-04-02T01:24:18.683Z,1.40
2018-04-02T01:25:21.181Z,1.40
2018-04-02T01:26:24.471Z,1.40
2018-04-02T01:27:26.951Z,1.40
2018-04-02T01:28:30.215Z,1.30
2018-04-02T01:29:32.680Z,1.30
2018-04-02T01:30:35.150Z,1.30
2018-04-02T01:31:38.382Z,1.30
2018-04-02T01:32:41.613Z,1.30
2018-04-02T01:33:44.915Z,1.30
2018-04-02T01:34:47.390Z,1.20
2018-04-02T01:35:50.869Z,1.20
2018-04-02T01:36:53.335Z,1.20
2018-04-02T01:37:55.853Z,1.20
2018-04-02T01:38:58.343Z,1.20
2018-04-02T01:41:14.116Z,1.10
2018-04-02T01:42:17.350Z,1.10
2018-04-02T01:43:20.621Z,1.10
2018-04-02T01:44:23.111Z,1.10
2018-04-02T01:45:25.571Z,1.10
2018-04-02T01:46:28.037Z,1.20
2018-04-02T01:47:30.501Z,1.10
2018-04-02T01:48:33.748Z,1.10
2018-04-02T01:49:37.038Z,1.10
2018-04-02T01:50:39.528Z,1.10
2018-04-02T01:51:41.982Z,1.20
2018-04-02T01:52:44.502Z,1.20
2018-04-02T01:53:46.998Z,1.10
2018-04-02T01:54:50.272Z,1.10
2018-04-02T01:55:52.769Z,1.10
2018-04-02T01:56:55.413Z,1.10
2018-04-02T01:57:58.695Z,1.10
2018-04-02T01:59:01.266Z,1.00
2018-04-02T02:00:04.637Z,1.00
2018-04-02T02:01:07.135Z,1.00
2018-04-02T02:02:10.396Z,1.10
2018-04-02T02:03:12.878Z,1.00
2018-04-02T02:04:16.364Z,1.10
2018-04-02T02:05:18.877Z,1.00
2018-04-02T02:06:22.193Z,1.10
2018-04-02T02:07:24.714Z,1.00
2018-04-02T02:08:27.974Z,1.00
2018-04-02T02:09:31.215Z,1.10
2018-04-02T02:10:34.461Z,1.10
2018-04-02T02:11:37.724Z,1.00
2018-04-02T02:12:40.243Z,1.00
2018-04-02T02:13:43.461Z,1.00
2018-04-02T02:14:45.953Z,1.00
2018-04-02T02:15:48.427Z,1.00
2018-04-02T02:16:51.669Z,1.00
2018-04-02T02:17:54.933Z,1.00
2018-04-02T02:18:57.382Z,1.00
2018-04-02T02:19:59.882Z,1.00
2018-04-02T02:21:02.342Z,1.00
2018-04-02T02:22:04.830Z,1.00
2018-04-02T02:23:07.313Z,1.00
2018-04-02T02:24:09.840Z,1.00
2018-04-02T02:25:12.308Z,0.90
2018-04-02T02:26:14.790Z,0.90
2018-04-02T02:27:17.269Z,0.90
2018-04-02T02:28:19.780Z,0.90
2018-04-02T02:29:22.300Z,0.90
2018-04-02T02:30:24.767Z,0.90
2018-04-02T02:31:27.218Z,0.90
2018-04-02T02:32:29.778Z,0.90
2018-04-02T02:33:32.248Z,0.90
2018-04-02T02:34:34.764Z,0.90
2018-04-02T02:35:37.216Z,0.90
2018-04-02T02:36:39.673Z,0.90
2018-04-02T02:37:42.140Z,0.90
2018-04-02T02:38:44.605Z,0.90
2018-04-02T02:39:47.953Z,0.90
2018-04-02T02:40:51.227Z,0.90
2018-04-02T02:41:53.673Z,0.90
2018-04-02T02:42:56.144Z,0.90
2018-04-02T02:43:59.375Z,0.80
2018-04-02T02:45:02.616Z,0.80
2018-04-02T02:46:05.898Z,0.80
2018-04-02T02:47:08.385Z,0.80
2018-04-02T02:48:11.536Z,0.80
2018-04-02T02:49:14.769Z,0.80
2018-04-02T02:50:17.259Z,0.80
2018-04-02T02:51:19.836Z,0.80
2018-04-02T02:52:23.074Z,0.80
2018-04-02T02:53:26.320Z,0.80
2018-04-02T02:54:29.592Z,0.80
2018-04-02T02:55:32.071Z,0.80
2018-04-02T02:56:34.560Z,0.70
2018-04-02T02:57:37.031Z,0.80
2018-04-02T02:58:40.255Z,0.80
2018-04-02T02:59:42.719Z,0.70
2018-04-02T03:00:45.194Z,0.70
2018-04-02T03:01:47.683Z,0.70
2018-04-02T03:02:50.163Z,0.80
2018-04-02T03:03:53.481Z,0.70
2018-04-02T03:04:56.174Z,0.70
2018-04-02T03:05:58.704Z,0.70
2018-04-02T03:07:01.372Z,0.70
2018-04-02T03:08:04.626Z,0.70
2018-04-02T03:09:07.810Z,0.70
2018-04-02T03:10:10.686Z,0.70
2018-04-02T03:11:14.689Z,0.70
2018-04-02T03:12:17.166Z,0.70
2018-04-02T03:13:19.667Z,0.70
2018-04-02T03:14:22.149Z,0.70
2018-04-02T03:15:25.415Z,0.70
2018-04-02T03:16:27.881Z,0.70
2018-04-02T03:17:30.722Z,0.70
2018-04-02T03:18:33.206Z,0.70
2018-04-02T03:19:35.690Z,0.70
2018-04-02T03:20:38.253Z,0.60
2018-04-02T03:21:40.722Z,0.70
2018-04-02T03:22:43.221Z,0.60
2018-04-02T03:23:45.686Z,0.60
2018-04-02T03:24:48.352Z,0.60
2018-04-02T03:25:50.827Z,0.60
2018-04-02T03:26:53.299Z,0.60
2018-04-02T03:27:55.909Z,0.60
2018-04-02T03:28:59.240Z,0.50
2018-04-02T03:30:01.735Z,0.50
2018-04-02T03:31:05.031Z,0.50
2018-04-02T03:32:08.286Z,0.50
2018-04-02T03:33:10.755Z,0.50
2018-04-02T03:34:13.227Z,0.50
2018-04-02T03:35:16.496Z,0.50
2018-04-02T03:36:18.957Z,0.50
2018-04-02T03:37:21.429Z,0.50
2018-04-02T03:38:23.916Z,0.50
2018-04-02T03:39:27.185Z,0.50
2018-04-02T03:40:30.470Z,0.50
2018-04-02T03:41:32.943Z,0.40
2018-04-02T03:42:36.208Z,0.40
2018-04-02T03:43:38.706Z,0.40
2018-04-02T03:44:41.177Z,0.40
2018-04-02T03:45:43.686Z,0.40
2018-04-02T03:46:46.200Z,0.40
2018-04-02T03:47:49.518Z,0.40
2018-04-02T03:48:52.769Z,0.30
2018-04-02T03:49:55.298Z,0.30
2018-04-02T03:50:58.540Z,0.30
2018-04-02T03:52:01.765Z,0.30
2018-04-02T03:53:04.278Z,0.30
2018-04-02T03:54:07.533Z,0.20
2018-04-02T03:55:09.990Z,0.20
2018-04-02T03:56:12.487Z,0.20
2018-04-02T03:57:15.071Z,0.20
2018-04-02T03:58:17.540Z,0.20
2018-04-02T03:59:20.034Z,0.20
2018-04-02T04:00:22.505Z,0.20
2018-04-02T04:01:25.829Z,0.20
2018-04-02T04:02:28.448Z,0.20
2018-04-02T04:03:30.910Z,0.20
2018-04-02T04:04:34.167Z,0.20
2018-04-02T04:05:36.685Z,0.20
2018-04-02T04:06:39.171Z,0.20
2018-04-02T04:07:41.643Z,0.20
2018-04-02T04:08:44.131Z,0.20
2018-04-02T04:09:47.412Z,0.20
2018-04-02T04:10:49.880Z,0.10
2018-04-02T04:11:52.370Z,0.10
2018-04-02T04:12:54.896Z,0.10
2018-04-02T04:13:57.367Z,0.10
2018-04-02T04:14:59.882Z,0.10
2018-04-02T04:16:02.404Z,0.10
2018-04-02T04:17:04.863Z,0.10
2018-04-02T04:18:07.350Z,0.10
2018-04-02T04:19:09.834Z,0.10
2018-04-02T04:20:12.320Z,0.10
2018-04-02T04:21:15.569Z,0.10
2018-04-02T04:22:18.850Z,0.00
2018-04-02T04:23:21.923Z,0.00
2018-04-02T04:24:24.428Z,0.10
2018-04-02T04:25:26.882Z,0.10
2018-04-02T04:26:29.329Z,0.00
2018-04-02T04:27:32.597Z,0.00
2018-04-02T04:28:35.082Z,0.00
2018-04-02T04:29:37.551Z,0.00
2018-04-02T04:30:40.036Z,0.00
2018-04-02T04:31:42.581Z,0.10
2018-04-02T04:32:45.855Z,0.10
2018-04-02T04:33:48.327Z,0.10
2018-04-02T04:34:50.802Z,0.10
2018-04-02T04:35:53.322Z,0.10
2018-04-02T04:36:56.350Z,0.10
2018-04-02T04:37:59.567Z,0.10
2018-04-02T04:39:02.072Z,0.10
2018-04-02T04:40:04.590Z,0.10
2018-04-02T04:41:07.058Z,0.10
2018-04-02T04:42:10.290Z,0.10
2018-04-02T04:43:13.525Z,0.00
2018-04-02T04:44:16.543Z,0.00
2018-04-02T04:45:19.121Z,0.00
2018-04-02T04:46:21.583Z,0.10
2018-04-02T04:47:24.043Z,0.10
2018-04-02T04:48:27.282Z,0.10
2018-04-02T04:49:30.513Z,0.20
2018-04-02T04:50:34.497Z,0.10
2018-04-02T04:51:37.771Z,0.10
2018-04-02T04:52:40.965Z,0.20
2018-04-02T04:53:44.240Z,0.20
2018-04-02T04:54:46.717Z,0.10
2018-04-02T04:55:49.216Z,0.20
2018-04-02T04:56:51.708Z,0.20
2018-04-02T04:57:54.185Z,0.20
2018-04-02T04:58:56.674Z,0.20
2018-04-02T04:59:59.157Z,0.20
2018-04-02T05:01:01.674Z,0.20
2018-04-02T05:02:04.187Z,0.20
2018-04-02T05:03:06.637Z,0.20
2018-04-02T05:04:09.887Z,0.20
2018-04-02T05:05:13.114Z,0.20
2018-04-02T05:06:15.606Z,0.20
2018-04-02T05:07:18.071Z,0.20
2018-04-02T05:08:20.555Z,0.30
2018-04-02T05:09:23.041Z,0.30
2018-04-02T05:10:26.291Z,0.30
2018-04-02T05:11:28.769Z,0.30
2018-04-02T05:12:32.752Z,0.30
2018-04-02T05:13:35.238Z,0.30
2018-04-02T05:14:37.727Z,0.40
2018-04-02T05:15:41.020Z,0.40
2018-04-02T05:16:43.541Z,0.50
2018-04-02T05:17:46.017Z,0.50
2018-04-02T05:18:49.246Z,0.50
2018-04-02T05:19:52.467Z,0.50
2018-04-02T05:20:54.946Z,0.50
2018-04-02T05:21:57.447Z,0.50
2018-04-02T05:22:59.977Z,0.60
2018-04-02T05:24:02.446Z,0.60
2018-04-02T05:25:04.927Z,0.60
2018-04-02T05:26:07.405Z,0.50
2018-04-02T05:27:09.892Z,0.60
2018-04-02T05:28:12.349Z,0.60
2018-04-02T05:29:15.036Z,0.60
2018-04-02T05:30:17.486Z,0.70
2018-04-02T05:31:19.956Z,0.70
2018-04-02T05:32:23.214Z,0.80
2018-04-02T05:33:26.455Z,0.80
2018-04-02T05:34:29.721Z,0.80
2018-04-02T05:35:32.193Z,0.80
2018-04-02T05:36:36.196Z,0.80
2018-04-02T05:37:39.463Z,0.80
2018-04-02T05:38:41.969Z,0.80
2018-04-02T05:39:44.459Z,0.80
2018-04-02T05:40:47.003Z,0.90
2018-04-02T05:41:50.265Z,0.90
2018-04-02T05:42:52.737Z,0.80
2018-04-02T05:43:55.208Z,0.90
2018-04-02T05:44:57.735Z,0.80
2018-04-02T05:46:00.235Z,0.80
2018-04-02T05:47:03.466Z,0.90
2018-04-02T05:48:05.945Z,0.90
2018-04-02T05:49:08.419Z,0.90
2018-04-02T05:50:10.921Z,0.90
2018-04-02T05:51:13.389Z,0.90
2018-04-02T05:52:16.616Z,0.90
2018-04-02T05:53:19.086Z,0.90
2018-04-02T05:54:21.614Z,0.90
2018-04-02T05:55:24.215Z,1.00
2018-04-02T05:56:27.203Z,1.00
2018-04-02T05:57:29.764Z,1.10
2018-04-02T05:58:32.403Z,1.10
2018-04-02T05:59:35.752Z,1.10
2018-04-02T06:00:39.248Z,1.10
2018-04-02T06:01:41.707Z,1.10
2018-04-02T06:02:44.966Z,1.10
2018-04-02T06:03:47.442Z,1.10
2018-04-02T06:04:50.687Z,1.10
2018-04-02T06:05:53.341Z,1.10
2018-04-02T06:06:56.600Z,1.20
2018-04-02T06:07:59.864Z,1.20
2018-04-02T06:09:02.355Z,1.20
2018-04-02T06:10:05.592Z,1.20
2018-04-02T06:11:08.084Z,1.20
2018-04-02T06:12:10.582Z,1.30
2018-04-02T06:13:13.108Z,1.30
2018-04-02T06:14:15.596Z,1.30
2018-04-02T06:15:18.849Z,1.30
2018-04-02T06:16:22.092Z,1.30
2018-04-02T06:17:25.324Z,1.30
2018-04-02T06:18:28.693Z,1.30
2018-04-02T06:19:31.155Z,1.30
2018-04-02T06:20:33.641Z,1.40
2018-04-02T06:21:36.117Z,1.40
2018-04-02T06:22:38.594Z,1.40
2018-04-02T06:23:41.213Z,1.50
2018-04-02T06:24:43.776Z,1.50
2018-04-02T06:25:46.346Z,1.50
2018-04-02T06:26:49.629Z,1.60
2018-04-02T06:27:52.101Z,1.50
2018-04-02T06:28:54.599Z,1.60
2018-04-02T06:29:57.059Z,1.60
2018-04-02T06:30:59.613Z,1.60
2018-04-02T06:32:02.087Z,1.60
2018-04-02T06:33:04.559Z,1.60
2018-04-02T06:34:07.809Z,1.60
2018-04-02T06:35:10.265Z,1.60
2018-04-02T06:36:12.794Z,1.70
2018-04-02T06:37:15.286Z,1.70
2018-04-02T06:38:17.811Z,1.70
2018-04-02T06:39:20.272Z,1.80
2018-04-02T06:40:22.751Z,1.90
2018-04-02T06:41:26.035Z,1.90
2018-04-02T06:42:28.527Z,1.90
2018-04-02T06:43:31.053Z,1.90
2018-04-02T06:44:33.562Z,2.00
2018-04-02T06:45:36.866Z,2.00
2018-04-02T06:46:39.352Z,2.00
2018-04-02T06:47:41.913Z,2.00
2018-04-02T06:48:44.387Z,2.10
2018-04-02T06:49:47.629Z,2.10
2018-04-02T06:50:51.810Z,2.10
2018-04-02T06:51:54.501Z,2.00
2018-04-02T06:52:57.123Z,2.00
2018-04-02T06:53:59.585Z,2.10
2018-04-02T06:55:02.076Z,2.10
2018-04-02T06:56:04.557Z,2.30
2018-04-02T06:57:07.066Z,2.40
2018-04-02T06:58:09.576Z,2.50
2018-04-02T06:59:13.530Z,2.60
2018-04-02T07:00:16.790Z,2.70
2018-04-02T07:01:19.278Z,2.70
2018-04-02T07:02:21.897Z,2.80
2018-04-02T07:03:24.422Z,2.90
2018-04-02T07:04:26.945Z,3.10
2018-04-02T07:05:29.472Z,3.40
2018-04-02T07:06:31.934Z,3.60
2018-04-02T07:07:35.169Z,3.70
2018-04-02T07:08:38.804Z,3.80
2018-04-02T07:09:41.507Z,3.80
2018-04-02T07:10:44.042Z,3.90
2018-04-02T07:11:46.531Z,3.80
2018-04-02T07:12:49.187Z,3.70
2018-04-02T07:13:51.672Z,3.70
2018-04-02T07:14:54.186Z,3.70
2018-04-02T07:15:57.421Z,3.80
2018-04-02T07:17:00.780Z,4.10
2018-04-02T07:18:03.380Z,4.00
2018-04-02T07:19:07.399Z,4.30
2018-04-02T07:20:09.904Z,4.30
2018-04-02T07:21:12.449Z,4.40
2018-04-02T07:22:15.461Z,4.30
2018-04-02T07:23:18.703Z,4.10
2018-04-02T07:24:21.220Z,4.10
2018-04-02T07:25:24.476Z,4.10
2018-04-02T07:26:26.921Z,4.10
2018-04-02T07:27:29.423Z,4.30
2018-04-02T07:28:31.931Z,4.60
2018-04-02T07:29:35.172Z,4.80
2018-04-02T07:30:38.472Z,4.90
2018-04-02T07:31:41.029Z,4.90
2018-04-02T07:32:43.568Z,4.90
2018-04-02T07:33:46.922Z,4.80
2018-04-02T07:34:50.145Z,4.80
2018-04-02T07:35:52.755Z,4.80
2018-04-02T07:36:55.252Z,4.70
2018-04-02T07:37:57.744Z,4.80
2018-04-02T07:39:01.105Z,5.20
2018-04-02T07:40:03.572Z,5.20
2018-04-02T07:41:06.100Z,5.40
2018-04-02T07:42:08.574Z,5.60
2018-04-02T07:43:11.057Z,5.70
2018-04-02T07:44:13.607Z,5.80
2018-04-02T07:45:16.859Z,6.20
2018-04-02T07:46:19.341Z,6.20
2018-04-02T07:47:21.913Z,6.20
2018-04-02T07:48:25.111Z,6.10
2018-04-02T07:49:27.589Z,6.10
2018-04-02T07:50:30.107Z,6.00
2018-04-02T07:51:32.582Z,6.10
2018-04-02T07:52:35.146Z,6.20
2018-04-02T07:53:38.449Z,6.40
2018-04-02T07:54:40.974Z,6.40
2018-04-02T07:55:43.507Z,6.50
2018-04-02T07:56:46.087Z,6.70
2018-04-02T07:57:49.160Z,6.90
2018-04-02T07:58:51.622Z,7.00
2018-04-02T07:59:54.875Z,7.20
2018-04-02T08:00:57.440Z,7.10
2018-04-02T08:01:59.923Z,7.40
2018-04-02T08:03:03.194Z,7.60
2018-04-02T08:04:05.693Z,7.60
2018-04-02T08:05:08.918Z,8.10
2018-04-02T08:06:11.399Z,8.10
2018-04-02T08:07:13.854Z,8.30
2018-04-02T08:08:16.343Z,8.40
2018-04-02T08:09:18.814Z,8.60
2018-04-02T08:10:21.294Z,8.90
2018-04-02T08:11:23.792Z,9.00
2018-04-02T08:12:27.031Z,9.10
2018-04-02T08:13:30.302Z,9.30
2018-04-02T08:14:32.779Z,9.30
2018-04-02T08:15:36.048Z,9.40
2018-04-02T08:16:39.297Z,9.50
2018-04-02T08:17:41.845Z,9.50
2018-04-02T08:18:44.348Z,9.90
2018-04-02T08:19:47.575Z,10.20
2018-04-02T08:20:50.832Z,10.20
2018-04-02T08:21:53.342Z,10.10
2018-04-02T08:22:57.357Z,10.50
2018-04-02T08:23:59.857Z,10.50
2018-04-02T08:25:02.390Z,10.80
2018-04-02T08:26:04.894Z,10.90
2018-04-02T08:27:07.366Z,10.90
2018-04-02T08:28:09.889Z,10.90
2018-04-02T08:29:12.370Z,10.70
2018-04-02T08:30:14.865Z,10.70
2018-04-02T08:31:18.139Z,10.50
2018-04-02T08:32:20.622Z,10.50
2018-04-02T08:33:23.204Z,10.70
2018-04-02T08:34:25.691Z,10.60
2018-04-02T08:35:28.987Z,10.20
2018-04-02T08:36:31.505Z,10.10
2018-04-02T08:37:34.069Z,10.10
2018-04-02T08:38:36.635Z,10.10
2018-04-02T08:39:39.161Z,10.20
2018-04-02T08:40:41.692Z,10.30
2018-04-02T08:41:44.190Z,10.30
2018-04-02T08:42:46.662Z,10.30
2018-04-02T08:43:49.158Z,10.40
2018-04-02T08:44:52.390Z,9.90
2018-04-02T08:45:55.632Z,9.70
2018-04-02T08:46:58.889Z,9.50
2018-04-02T08:48:01.372Z,9.50
2018-04-02T08:49:03.911Z,9.20
2018-04-02T08:50:06.404Z,9.00
2018-04-02T08:51:08.862Z,8.80
2018-04-02T08:52:12.121Z,8.50
2018-04-02T08:53:15.405Z,8.40
2018-04-02T08:54:17.880Z,8.30
2018-04-02T08:55:21.151Z,7.90
2018-04-02T08:56:23.694Z,7.90
2018-04-02T08:57:26.164Z,7.80
2018-04-02T08:58:28.677Z,7.70
2018-04-02T08:59:31.153Z,7.60
2018-04-02T09:00:33.672Z,7.50
2018-04-02T09:01:36.180Z,7.40
2018-04-02T09:02:40.084Z,7.40
2018-04-02T09:03:42.551Z,7.40
2018-04-02T09:04:45.012Z,7.40
2018-04-02T09:05:47.475Z,7.20
2018-04-02T09:06:49.942Z,7.10
2018-04-02T09:07:53.217Z,7.20
2018-04-02T09:08:55.686Z,7.20
2018-04-02T09:09:58.302Z,7.30
2018-04-02T09:11:00.794Z,7.30
2018-04-02T09:12:03.278Z,7.40
2018-04-02T09:13:06.550Z,7.40
2018-04-02T09:14:09.070Z,7.40
2018-04-02T09:15:11.576Z,7.40
2018-04-02T09:16:14.811Z,7.30
2018-04-02T09:17:17.294Z,7.30
2018-04-02T09:18:19.752Z,7.30
2018-04-02T09:19:22.249Z,7.30
2018-04-02T09:20:24.737Z,7.30
2018-04-02T09:21:27.349Z,7.40
2018-04-02T09:22:30.573Z,7.30
2018-04-02T09:23:33.051Z,7.30
2018-04-02T09:24:35.518Z,7.20
2018-04-02T09:25:38.075Z,7.10
2018-04-02T09:26:41.349Z,7.00
2018-04-02T09:27:43.833Z,7.00
2018-04-02T09:28:47.080Z,7.10
2018-04-02T09:29:49.580Z,7.10
2018-04-02T09:30:52.091Z,7.20
2018-04-02T09:31:54.601Z,7.30
2018-04-02T09:32:57.100Z,7.40
2018-04-02T09:33:59.601Z,7.50
2018-04-02T09:35:02.863Z,7.60
2018-04-02T09:36:05.358Z,7.60
2018-04-02T09:37:07.841Z,7.60
2018-04-02T09:38:10.334Z,7.60
2018-04-02T09:39:12.832Z,7.60
2018-04-02T09:40:15.291Z,7.60
2018-04-02T09:41:18.072Z,7.70
2018-04-02T09:42:20.585Z,7.60
2018-04-02T09:43:23.103Z,7.60
2018-04-02T09:44:25.629Z,7.70
2018-04-02T09:45:28.110Z,7.70
2018-04-02T09:46:31.336Z,7.80
2018-04-02T09:47:34.205Z,7.80
2018-04-02T09:48:36.697Z,7.80
2018-04-02T09:49:39.184Z,7.80
2018-04-02T09:50:41.675Z,7.90
2018-04-02T09:51:44.157Z,7.90
2018-04-02T09:52:46.630Z,8.00
2018-04-02T09:53:49.177Z,8.00
2018-04-02T09:54:51.670Z,8.00
2018-04-02T09:55:54.121Z,7.90
2018-04-02T09:56:56.600Z,7.90
2018-04-02T09:57:59.844Z,7.80
2018-04-02T09:59:03.131Z,7.80
2018-04-02T10:00:05.603Z,7.80
2018-04-02T10:01:15.198Z,7.80
2018-04-02T10:02:21.594Z,7.80
2018-04-02T10:03:24.119Z,7.80
2018-04-02T10:04:30.494Z,7.80
2018-04-02T10:05:33.587Z,7.80
2018-04-02T10:06:36.896Z,7.80
2018-04-02T10:07:39.363Z,7.80
2018-04-02T10:08:42.612Z,7.80
2018-04-02T10:09:45.870Z,7.70
2018-04-02T10:10:48.371Z,7.70
2018-04-02T10:11:51.582Z,7.50
2018-04-02T10:12:54.082Z,7.50
2018-04-02T10:13:56.586Z,7.50
2018-04-02T10:14:59.060Z,7.50
2018-04-02T10:16:01.538Z,7.50
2018-04-02T10:17:04.017Z,7.50
2018-04-02T10:18:06.518Z,7.50
2018-04-02T10:19:09.066Z,7.50
2018-04-02T10:20:11.528Z,7.60
2018-04-02T10:21:14.783Z,7.60
2018-04-02T10:22:17.251Z,7.60
2018-04-02T10:23:19.709Z,7.60
2018-04-02T10:24:22.974Z,7.70
2018-04-02T10:25:25.488Z,7.70
2018-04-02T10:26:28.009Z,7.70
2018-04-02T10:27:30.486Z,7.70
2018-04-02T10:28:32.972Z,7.80
2018-04-02T10:29:35.512Z,7.90
2018-04-02T10:30:38.720Z,7.90
2018-04-02T10:31:41.978Z,7.80
2018-04-02T10:32:44.457Z,7.80
2018-04-02T10:33:46.966Z,7.70
2018-04-02T10:34:49.463Z,7.70
2018-04-02T10:35:52.885Z,7.60
2018-04-02T10:36:55.393Z,7.60
2018-04-02T10:37:57.999Z,7.60
2018-04-02T10:39:00.512Z,7.70
2018-04-02T10:40:02.994Z,7.70
2018-04-02T10:41:06.226Z,7.70
2018-04-02T10:42:09.463Z,7.80
2018-04-02T10:43:11.953Z,7.80
2018-04-02T10:44:14.469Z,7.80
2018-04-02T10:45:16.946Z,7.80
2018-04-02T10:46:20.235Z,7.90
2018-04-02T10:47:22.730Z,7.80
2018-04-02T10:48:25.970Z,8.00
2018-04-02T10:49:28.472Z,7.90
2018-04-02T10:50:30.940Z,8.00
2018-04-02T10:51:33.450Z,8.00
2018-04-02T10:52:35.915Z,7.90
2018-04-02T10:53:38.411Z,7.80
2018-04-02T10:54:40.870Z,7.80
2018-04-02T10:55:43.578Z,7.80
2018-04-02T10:56:46.063Z,7.80
2018-04-02T10:57:49.312Z,7.80
2018-04-02T10:58:52.771Z,7.80
2018-04-02T10:59:55.248Z,7.80
2018-04-02T11:00:57.706Z,7.80
2018-04-02T11:02:00.971Z,7.90
2018-04-02T11:03:03.665Z,7.90
2018-04-02T11:04:06.146Z,8.00
2018-04-02T11:05:08.636Z,8.10
2018-04-02T11:06:11.127Z,8.20
2018-04-02T11:07:13.574Z,8.20
2018-04-02T11:08:16.259Z,8.30
2018-04-02T11:09:18.742Z,8.40
2018-04-02T11:10:21.987Z,8.70
2018-04-02T11:11:25.239Z,8.60
2018-04-02T11:12:27.764Z,8.60
2018-04-02T11:13:30.305Z,8.70
2018-04-02T11:14:32.787Z,8.90
2018-04-02T11:15:36.022Z,8.90
2018-04-02T11:16:38.631Z,8.90
2018-04-02T11:17:41.126Z,8.90
2018-04-02T11:18:43.629Z,8.80
2018-04-02T11:19:46.347Z,8.90
2018-04-02T11:20:49.898Z,8.70
2018-04-02T11:21:53.180Z,8.70
2018-04-02T11:22:55.685Z,8.70
2018-04-02T11:23:58.159Z,8.70
2018-04-02T11:25:00.672Z,8.70
2018-04-02T11:26:03.137Z,8.80
2018-04-02T11:27:06.397Z,8.90
2018-04-02T11:28:09.060Z,8.80
2018-04-02T11:29:11.544Z,8.90
2018-04-02T11:30:14.800Z,8.80
2018-04-02T11:31:17.280Z,8.80
2018-04-02T11:32:19.748Z,8.70
2018-04-02T11:33:22.244Z,8.60
2018-04-02T11:34:24.703Z,8.60
2018-04-02T11:35:27.378Z,8.60
2018-04-02T11:36:29.848Z,8.60
2018-04-02T11:37:32.389Z,8.70
2018-04-02T11:38:34.867Z,8.70
2018-04-02T11:39:37.330Z,8.60
2018-04-02T11:40:39.807Z,8.50
2018-04-02T11:41:42.319Z,8.50
2018-04-02T11:42:44.802Z,8.40
2018-04-02T11:43:47.305Z,8.50
2018-04-02T11:44:50.517Z,8.60
2018-04-02T11:45:53.014Z,8.50
2018-04-02T11:46:55.491Z,8.60
2018-04-02T11:47:58.030Z,8.60
2018-04-02T11:49:01.339Z,8.70
2018-04-02T11:50:03.824Z,8.70
2018-04-02T11:51:06.463Z,8.60
2018-04-02T11:52:09.038Z,8.60
2018-04-02T11:53:11.510Z,8.60
2018-04-02T11:54:14.047Z,8.60
2018-04-02T11:55:16.516Z,8.60
2018-04-02T11:56:19.775Z,8.50
2018-04-02T11:57:23.012Z,8.50
2018-04-02T11:58:26.370Z,8.50
2018-04-02T11:59:28.857Z,8.40
2018-04-02T12:00:31.375Z,8.40
2018-04-02T12:01:33.883Z,8.40
2018-04-02T12:02:36.370Z,8.40
2018-04-02T12:03:38.838Z,8.40
2018-04-02T12:04:41.322Z,8.50
2018-04-02T12:05:43.808Z,8.50
2018-04-02T12:06:46.274Z,8.50
2018-04-02T12:07:48.761Z,8.50
2018-04-02T12:08:52.066Z,8.60
2018-04-02T12:09:54.576Z,8.60
2018-04-02T12:10:57.064Z,8.60
2018-04-02T12:12:00.345Z,8.70
2018-04-02T12:13:02.859Z,8.70
2018-04-02T12:14:05.370Z,8.70
2018-04-02T12:15:08.622Z,8.70
2018-04-02T12:16:11.876Z,8.80
2018-04-02T12:17:14.361Z,8.80
2018-04-02T12:18:17.907Z,8.80
2018-04-02T12:19:20.481Z,8.90
2018-04-02T12:20:22.932Z,8.90
2018-04-02T12:21:25.418Z,8.90
2018-04-02T12:22:28.029Z,8.90
2018-04-02T12:23:31.428Z,9.00
2018-04-02T12:24:33.918Z,8.90
2018-04-02T12:25:36.457Z,8.90
2018-04-02T12:26:38.934Z,8.90
2018-04-02T12:28:50.458Z,9.00
2018-04-02T12:29:53.711Z,9.00
2018-04-02T12:30:56.203Z,9.00
2018-04-02T12:31:58.664Z,9.10
2018-04-02T12:33:01.185Z,9.10
2018-04-02T12:34:03.762Z,9.10
2018-04-02T12:35:06.327Z,9.10
2018-04-02T12:36:09.602Z,9.10
2018-04-02T12:37:12.156Z,9.10
2018-04-02T12:38:14.736Z,9.00
2018-04-02T12:39:17.272Z,9.00
2018-04-02T12:40:19.864Z,8.90
2018-04-02T12:41:22.344Z,8.90
2018-04-02T12:42:24.878Z,8.90
2018-04-02T12:43:28.228Z,8.90
2018-04-02T12:44:30.720Z,8.90
2018-04-02T12:45:33.240Z,9.00
2018-04-02T12:46:35.718Z,9.00
2018-04-02T12:47:38.186Z,9.10
2018-04-02T12:48:41.406Z,9.20
2018-04-02T12:49:44.676Z,9.20
2018-04-02T12:50:47.186Z,9.20
2018-04-02T12:51:49.654Z,9.20
2018-04-02T12:52:52.156Z,9.30
2018-04-02T12:53:54.665Z,9.30
2018-04-02T12:54:57.982Z,9.40
2018-04-02T12:56:00.459Z,9.40
2018-04-02T12:57:02.942Z,9.30
2018-04-02T12:58:05.391Z,9.30
2018-04-02T12:59:07.843Z,9.30
2018-04-02T13:00:10.321Z,9.30
2018-04-02T13:01:13.582Z,9.40
2018-04-02T13:02:16.667Z,9.30
2018-04-02T13:03:19.193Z,9.40
2018-04-02T13:04:22.461Z,9.50
2018-04-02T13:05:25.738Z,9.50
2018-04-02T13:06:28.210Z,9.50
2018-04-02T13:07:30.688Z,9.50
2018-04-02T13:08:33.180Z,9.40
2018-04-02T13:09:36.410Z,9.40
2018-04-02T13:10:38.932Z,9.40
2018-04-02T13:11:41.421Z,9.40
2018-04-02T13:12:43.920Z,9.40
2018-04-02T13:13:46.461Z,9.40
2018-04-02T13:14:48.987Z,9.50
2018-04-02T13:15:51.461Z,9.50
2018-04-02T13:16:53.923Z,9.60
2018-04-02T13:17:56.388Z,9.60
2018-04-02T13:18:58.895Z,9.60
2018-04-02T13:20:01.369Z,9.70
2018-04-02T13:21:04.393Z,9.60
2018-04-02T13:22:06.855Z,9.60
2018-04-02T13:23:10.086Z,9.60
2018-04-02T13:24:13.326Z,9.70
2018-04-02T13:25:16.561Z,9.70
2018-04-02T13:26:19.894Z,9.70
2018-04-02T13:27:22.412Z,9.70
2018-04-02T13:28:25.718Z,9.60
2018-04-02T13:29:28.199Z,9.60
2018-04-02T13:30:30.715Z,9.60
2018-04-02T13:31:33.965Z,9.70
2018-04-02T13:32:36.429Z,9.60
2018-04-02T13:33:38.904Z,9.60
2018-04-02T13:34:41.409Z,9.60
2018-04-02T13:35:43.898Z,9.70
2018-04-02T13:36:46.373Z,9.70
2018-04-02T13:37:48.960Z,9.60
2018-04-02T13:38:51.504Z,9.70
2018-04-02T13:39:53.992Z,9.70
2018-04-02T13:40:57.297Z,9.70
2018-04-02T13:41:59.740Z,9.70
2018-04-02T13:43:02.963Z,9.80
2018-04-02T13:44:05.421Z,9.70
2018-04-02T13:45:08.671Z,9.80
2018-04-02T13:46:11.178Z,9.80
2018-04-02T13:47:13.643Z,9.80
2018-04-02T13:48:16.126Z,9.70
2018-04-02T13:49:18.655Z,9.70
2018-04-02T13:50:21.894Z,9.80
2018-04-02T13:51:25.274Z,9.80
2018-04-02T13:52:27.813Z,9.70
2018-04-02T13:53:30.281Z,9.80
2018-04-02T13:54:32.785Z,9.70
2018-04-02T13:55:35.247Z,9.70
2018-04-02T13:56:38.514Z,9.60